Time;durP1;ratioP1;P1;durP2;ratioP2;P2;SDS_P1;SDS_P2;PMS_P1;PMS_P2;Temp;Humidity;BMP_temperature;BMP_pressure;BME280_temperature;BME280_humidity;BME280_pressure;Samples;Min_cycle;Max_cycle;Signal;HPM_P1;HPM_P2
2022/01/21 00:00:35;;;;;;;16.73;11.30;;;23.60;94.50;;;;;;4206458;28;20652;-65
2022/01/21 00:02:40;;;;;;;23.40;11.68;;;23.60;94.40;;;;;;4203064;28;20863;-65
2022/01/21 00:04:44;;;;;;;18.08;10.63;;;23.60;94.20;;;;;;4204591;28;20036;-65
2022/01/21 00:06:49;;;;;;;14.32;10.68;;;23.60;94.20;;;;;;4204806;28;20056;-65
2022/01/21 00:08:53;;;;;;;14.32;10.73;;;23.60;94.30;;;;;;4187973;28;20561;-65
2022/01/21 00:10:58;;;;;;;14.68;11.00;;;23.60;94.30;;;;;;4204926;28;20650;-64
2022/01/21 00:13:04;;;;;;;19.48;14.10;;;23.60;94.60;;;;;;4204174;28;20038;-64
2022/01/21 00:15:10;;;;;;;32.60;22.55;;;23.60;94.70;;;;;;4202510;28;20062;-64
2022/01/21 00:17:17;;;;;;;41.15;36.78;;;23.70;94.50;;;;;;4204883;28;20549;-66
2022/01/21 00:19:24;;;;;;;46.28;41.13;;;23.70;94.60;;;;;;4197702;28;20613;-66
2022/01/21 00:30:35;;;;;;;33.92;24.45;;;23.60;95.50;;;;;;4185258;28;20052;-68
2022/01/21 00:32:41;;;;;;;56.20;36.58;;;23.60;95.40;;;;;;4192849;28;20665;-67
2022/01/21 00:34:46;;;;;;;79.03;44.08;;;23.60;95.40;;;;;;4190968;28;20162;-66
2022/01/21 00:36:50;;;;;;;89.82;49.20;;;23.60;95.40;;;;;;4191804;28;20083;-66
2022/01/21 00:38:56;;;;;;;70.22;43.08;;;23.60;95.30;;;;;;4195806;28;20052;-66
2022/01/21 00:41:04;;;;;;;62.80;36.72;;;23.60;95.10;;;;;;4180253;28;20044;-66
2022/01/21 00:43:14;;;;;;;57.58;31.42;;;23.70;95.30;;;;;;4193561;28;20039;-65
2022/01/21 00:45:20;;;;;;;46.55;26.45;;;23.70;95.20;;;;;;4193567;28;20054;-67
2022/01/21 00:47:24;;;;;;;42.30;25.30;;;23.70;95.20;;;;;;4193120;28;20078;-67
2022/01/21 00:49:29;;;;;;;35.88;21.50;;;23.70;95.30;;;;;;4178293;28;20057;-67
2022/01/21 00:51:33;;;;;;;32.55;21.08;;;23.70;95.40;;;;;;4195369;28;20054;-66
2022/01/21 00:53:37;;;;;;;27.52;17.15;;;23.70;95.60;;;;;;4193864;28;20051;-66
2022/01/21 00:55:42;;;;;;;23.45;16.35;;;23.70;95.50;;;;;;4193920;28;20048;-67
2022/01/21 00:57:47;;;;;;;23.45;14.57;;;23.80;95.40;;;;;;4194721;28;20502;-68
2022/01/21 00:59:51;;;;;;;24.23;15.07;;;23.80;95.40;;;;;;4195128;28;20055;-66
2022/01/21 01:01:55;;;;;;;20.88;15.25;;;23.80;95.60;;;;;;4177167;28;20044;-67
2022/01/21 01:04:00;;;;;;;22.38;15.18;;;23.80;95.80;;;;;;4194314;28;20074;-67
2022/01/21 01:06:04;;;;;;;21.77;15.35;;;23.70;95.80;;;;;;4193013;28;20086;-67
2022/01/21 01:08:09;;;;;;;23.85;14.38;;;23.70;95.80;;;;;;4193567;28;20052;-68
2022/01/21 01:10:20;;;;;;;20.55;14.93;;;23.70;96.00;;;;;;4178324;28;20044;-66
2022/01/21 01:12:40;;;;;;;20.15;14.63;;;23.70;96.00;;;;;;4195901;28;20131;-67
2022/01/21 01:21:36;;;;;;;22.05;14.95;;;23.80;96.20;;;;;;4195160;28;20135;-67
2022/01/21 01:28:14;;;;;;;23.48;14.98;;;23.80;96.20;;;;;;4193700;28;20063;-66
2022/01/21 01:30:21;;;;;;;20.95;16.10;;;23.80;96.10;;;;;;4194882;28;21480;-66
2022/01/21 01:32:27;;;;;;;21.33;14.75;;;23.90;96.00;;;;;;4198629;28;20052;-66
2022/01/21 01:34:32;;;;;;;20.63;14.40;;;23.90;96.00;;;;;;4197875;28;20055;-67
2022/01/21 01:36:36;;;;;;;16.63;14.02;;;23.90;95.80;;;;;;4197952;28;20055;-66
2022/01/21 01:41:03;;;;;;;18.92;14.35;;;23.90;95.50;;;;;;4198847;28;20055;-66
2022/01/21 01:49:51;;;;;;;21.50;14.25;;;23.90;95.70;;;;;;4196381;28;20048;-67
2022/01/21 01:51:59;;;;;;;22.15;15.30;;;24.00;95.80;;;;;;4199337;28;20134;-67
2022/01/21 01:54:10;;;;;;;20.30;13.85;;;23.90;95.80;;;;;;4196705;28;20060;-66
2022/01/21 01:56:17;;;;;;;16.73;12.15;;;23.90;95.50;;;;;;4195934;28;20048;-64
2022/01/21 01:58:21;;;;;;;16.42;11.98;;;23.90;95.20;;;;;;4195855;28;20051;-67
2022/01/21 02:00:26;;;;;;;20.27;12.18;;;24.00;95.10;;;;;;4198889;28;20078;-66
2022/01/21 02:02:30;;;;;;;19.95;12.93;;;24.00;95.10;;;;;;4195561;28;20583;-65
2022/01/21 02:04:35;;;;;;;16.42;11.85;;;23.90;95.30;;;;;;4194286;28;20118;-66
2022/01/21 02:06:39;;;;;;;18.45;12.13;;;24.00;95.40;;;;;;4196462;28;20050;-66
2022/01/21 02:08:44;;;;;;;16.55;12.48;;;24.00;95.30;;;;;;4196079;28;20067;-66
2022/01/21 02:10:48;;;;;;;15.15;11.43;;;24.10;95.20;;;;;;4181151;28;20102;-65
2022/01/21 02:13:04;;;;;;;14.40;11.70;;;24.10;95.30;;;;;;4178655;28;20128;-65
2022/01/21 02:15:09;;;;;;;14.02;11.25;;;24.10;95.30;;;;;;4197489;28;20055;-65
2022/01/21 02:23:40;;;;;;;19.05;12.38;;;24.20;95.10;;;;;;4197873;28;20050;-65
2022/01/21 02:25:44;;;;;;;17.85;12.43;;;24.20;95.10;;;;;;4177849;28;20157;-66
2022/01/21 02:27:51;;;;;;;16.08;11.82;;;24.20;95.00;;;;;;4196868;28;20087;-65
2022/01/21 02:30:02;;;;;;;16.23;12.23;;;24.20;95.10;;;;;;4177596;28;20438;-65
2022/01/21 02:32:08;;;;;;;18.95;13.05;;;24.20;95.60;;;;;;4179479;28;20044;-65
2022/01/21 02:34:13;;;;;;;18.08;12.40;;;24.20;95.70;;;;;;4195676;28;20059;-64
2022/01/21 02:36:17;;;;;;;19.65;13.43;;;24.20;95.90;;;;;;4179106;28;20044;-65
2022/01/21 02:38:22;;;;;;;19.13;13.77;;;24.10;95.90;;;;;;4180176;28;20068;-64
2022/01/21 02:40:27;;;;;;;18.17;12.77;;;24.20;95.90;;;;;;4177448;28;20052;-64
2022/01/21 02:42:33;;;;;;;20.52;13.50;;;24.20;96.00;;;;;;4178401;28;20116;-64
2022/01/21 02:44:40;;;;;;;18.77;13.70;;;24.20;96.20;;;;;;4195300;28;20675;-65
2022/01/21 02:46:46;;;;;;;18.20;13.15;;;24.30;96.30;;;;;;4176809;28;20044;-64
2022/01/21 02:48:52;;;;;;;17.90;13.70;;;24.30;96.30;;;;;;4194810;28;20198;-65
2022/01/21 02:50:56;;;;;;;19.52;12.63;;;24.40;96.10;;;;;;4196586;28;20047;-65
2022/01/21 02:53:24;;;;;;;15.40;11.75;;;24.30;95.90;;;;;;4178751;28;20603;-65
2022/01/21 02:55:26;;;;;;;17.45;13.00;;;24.40;95.90;;;;;;4197124;28;20078;-65
2022/01/21 02:57:31;;;;;;;17.20;11.80;;;24.40;95.90;;;;;;4179485;28;20106;-64
2022/01/21 02:59:35;;;;;;;14.05;11.73;;;24.50;95.90;;;;;;4195011;28;20048;-64
2022/01/21 03:01:41;;;;;;;16.33;11.30;;;24.60;95.80;;;;;;4178442;28;20104;-65
2022/01/21 03:03:47;;;;;;;19.90;11.23;;;24.60;95.70;;;;;;4179815;28;20048;-65
2022/01/21 03:05:53;;;;;;;19.75;12.40;;;24.60;95.90;;;;;;4194517;28;20079;-65
2022/01/21 03:07:57;;;;;;;17.90;12.30;;;24.70;95.50;;;;;;4179580;28;20040;-65
2022/01/21 03:10:02;;;;;;;15.02;12.30;;;24.60;95.50;;;;;;4178373;28;20057;-65
2022/01/21 03:12:08;;;;;;;19.13;12.80;;;24.70;95.40;;;;;;4177865;28;20056;-65
2022/01/21 03:14:13;;;;;;;19.42;12.70;;;24.70;94.90;;;;;;4180680;28;20043;-64
2022/01/21 03:16:19;;;;;;;16.08;12.57;;;24.80;94.80;;;;;;4196469;28;20055;-65
2022/01/21 03:18:37;;;;;;;17.38;12.95;;;24.80;94.60;;;;;;4182790;28;20044;-65
2022/01/21 03:21:01;;;;;;;16.75;12.32;;;24.80;94.40;;;;;;4166495;28;20060;-64
2022/01/21 03:23:17;;;;;;;19.60;13.07;;;24.80;94.30;;;;;;4187850;28;20056;-64
2022/01/21 03:25:34;;;;;;;21.10;12.63;;;24.80;94.10;;;;;;4177559;28;20359;-65
2022/01/21 03:27:39;;;;;;;16.27;11.93;;;24.90;94.00;;;;;;4180976;28;20060;-65
2022/01/21 03:29:44;;;;;;;16.65;11.85;;;24.90;94.00;;;;;;4177200;28;20051;-65
2022/01/21 03:31:49;;;;;;;18.33;11.65;;;24.90;94.10;;;;;;4195666;28;20060;-63
2022/01/21 03:33:59;;;;;;;16.73;12.30;;;24.90;93.90;;;;;;4177155;28;20059;-64
2022/01/21 03:36:09;;;;;;;16.25;12.20;;;24.90;93.70;;;;;;4178245;28;20044;-64
2022/01/21 03:38:13;;;;;;;16.25;11.65;;;24.90;93.80;;;;;;4178680;28;20060;-64
2022/01/21 03:40:18;;;;;;;25.55;13.15;;;25.00;93.70;;;;;;4178357;28;20039;-65
2022/01/21 03:42:24;;;;;;;19.65;15.93;;;25.00;93.60;;;;;;4177986;28;20132;-66
2022/01/21 03:44:28;;;;;;;18.88;14.45;;;25.00;93.20;;;;;;4176763;28;20049;-64
2022/01/21 03:46:33;;;;;;;21.90;14.02;;;25.10;93.10;;;;;;4195000;28;20479;-64
2022/01/21 03:48:38;;;;;;;20.40;14.60;;;25.10;93.30;;;;;;4177542;28;20051;-64
2022/01/21 03:50:43;;;;;;;16.80;13.27;;;25.10;93.30;;;;;;4177974;28;20151;-65
2022/01/21 03:52:48;;;;;;;15.30;13.00;;;25.10;92.90;;;;;;4177520;28;20122;-65
2022/01/21 03:54:52;;;;;;;17.98;11.52;;;25.10;92.70;;;;;;4192377;28;20073;-65
2022/01/21 03:56:57;;;;;;;16.00;13.18;;;25.10;92.40;;;;;;4177334;28;21124;-65
2022/01/21 03:59:01;;;;;;;18.63;12.30;;;25.10;92.40;;;;;;4178234;28;20048;-64
2022/01/21 04:01:06;;;;;;;20.25;13.65;;;25.10;92.30;;;;;;4194405;28;21900;-64
2022/01/21 04:03:11;;;;;;;16.02;11.77;;;25.20;92.20;;;;;;4178730;28;20045;-64
2022/01/21 04:05:15;;;;;;;14.55;12.70;;;25.20;92.00;;;;;;4191944;28;20070;-64
2022/01/21 04:07:20;;;;;;;13.00;11.15;;;25.20;92.00;;;;;;4195584;28;20098;-65
2022/01/21 04:09:24;;;;;;;15.90;12.35;;;25.30;91.70;;;;;;4196432;28;20043;-64
2022/01/21 04:11:30;;;;;;;17.45;12.70;;;25.20;91.80;;;;;;4177595;28;20076;-66
2022/01/21 04:13:35;;;;;;;15.75;11.13;;;25.30;91.80;;;;;;4176472;28;20540;-66
2022/01/21 04:15:51;;;;;;;15.50;11.73;;;25.40;91.70;;;;;;4194645;28;20129;-64
2022/01/21 04:17:56;;;;;;;20.17;14.18;;;25.40;91.60;;;;;;4178706;28;20048;-66
2022/01/21 04:20:00;;;;;;;17.73;12.90;;;25.50;91.60;;;;;;4163757;28;20148;-63
2022/01/21 04:22:09;;;;;;;16.63;11.55;;;25.60;91.50;;;;;;4193684;28;20651;-64
2022/01/21 04:24:15;;;;;;;17.25;13.45;;;25.60;91.40;;;;;;4175532;28;20523;-64
2022/01/21 04:26:20;;;;;;;28.85;13.40;;;25.60;91.40;;;;;;4177234;28;20613;-63
2022/01/21 04:28:24;;;;;;;19.48;13.02;;;25.70;91.40;;;;;;4177633;28;20474;-63
2022/01/21 04:30:33;;;;;;;17.20;12.50;;;25.70;91.30;;;;;;4178312;28;20071;-65
2022/01/21 04:32:37;;;;;;;23.27;13.52;;;25.70;91.40;;;;;;4194513;28;20068;-63
2022/01/21 04:34:50;;;;;;;15.77;12.00;;;25.80;91.40;;;;;;4176606;28;20049;-65
2022/01/21 04:36:55;;;;;;;20.58;13.98;;;25.80;91.50;;;;;;4192979;28;20089;-65
2022/01/21 04:39:06;;;;;;;20.45;13.88;;;25.80;91.90;;;;;;4194371;28;20642;-63
2022/01/21 04:47:53;;;;;;;20.10;12.20;;;25.90;91.30;;;;;;4193590;28;20048;-61
2022/01/21 04:49:59;;;;;;;19.98;10.55;;;26.00;91.30;;;;;;4177016;28;20076;-63
2022/01/21 04:52:08;;;;;;;17.75;12.35;;;26.00;91.30;;;;;;4176474;28;20576;-63
2022/01/21 04:54:26;;;;;;;18.23;12.10;;;26.00;91.20;;;;;;4174945;28;20258;-63
2022/01/21 04:56:31;;;;;;;16.75;11.38;;;26.00;91.20;;;;;;4194053;28;20733;-62
2022/01/21 04:58:36;;;;;;;16.08;11.88;;;26.00;91.30;;;;;;4177956;28;20045;-63
2022/01/21 05:00:42;;;;;;;19.63;12.15;;;26.00;91.60;;;;;;4177176;28;20055;-64
2022/01/21 05:02:46;;;;;;;18.67;12.68;;;26.00;91.40;;;;;;4177734;28;20048;-63
2022/01/21 05:04:51;;;;;;;15.57;12.20;;;26.00;91.40;;;;;;4175239;28;20057;-65
2022/01/21 05:06:56;;;;;;;15.90;12.05;;;26.00;91.30;;;;;;4177137;28;20107;-63
2022/01/21 05:09:01;;;;;;;22.20;12.43;;;26.00;91.30;;;;;;4176513;28;20443;-62
2022/01/21 05:11:06;;;;;;;20.88;12.20;;;26.00;91.20;;;;;;4193780;28;20048;-62
2022/01/21 05:13:14;;;;;;;19.75;12.65;;;26.10;91.10;;;;;;4195061;28;20071;-63
2022/01/21 05:15:41;;;;;;;16.95;11.85;;;26.00;91.20;;;;;;4177094;28;20074;-65
2022/01/21 05:17:48;;;;;;;21.33;12.88;;;26.00;91.10;;;;;;4194365;28;20048;-63
2022/01/21 05:20:13;;;;;;;17.20;12.55;;;25.90;91.50;;;;;;4196770;28;20061;-64
2022/01/21 05:22:30;;;;;;;19.25;12.82;;;25.80;91.60;;;;;;4194258;28;20061;-63
2022/01/21 05:24:35;;;;;;;20.52;13.55;;;25.80;91.70;;;;;;4197397;28;20059;-61
2022/01/21 05:26:42;;;;;;;19.08;13.75;;;25.80;91.60;;;;;;4192052;28;20055;-63
2022/01/21 05:28:47;;;;;;;15.20;12.75;;;25.80;91.60;;;;;;4177251;28;20114;-63
2022/01/21 05:31:11;;;;;;;18.35;12.95;;;25.80;91.70;;;;;;4194469;28;20052;-63
2022/01/21 05:33:35;;;;;;;30.77;13.43;;;25.90;91.60;;;;;;4195632;28;20044;-65
2022/01/21 05:35:52;;;;;;;32.28;14.48;;;25.90;91.50;;;;;;4194413;28;20140;-64
2022/01/21 05:38:17;;;;;;;21.65;14.48;;;26.00;91.50;;;;;;4194668;28;20387;-65
2022/01/21 05:40:43;;;;;;;45.92;14.88;;;26.00;91.60;;;;;;4194594;28;20052;-64
2022/01/21 05:42:59;;;;;;;26.95;13.57;;;26.00;91.90;;;;;;4195132;28;20043;-63
2022/01/21 05:47:53;;;;;;;18.45;14.48;;;26.00;91.50;;;;;;4194653;28;20043;-64
2022/01/21 05:50:17;;;;;;;18.02;13.80;;;26.00;91.50;;;;;;4194689;28;20044;-65
2022/01/21 05:52:41;;;;;;;18.55;13.35;;;26.00;91.30;;;;;;4176154;28;20562;-66
2022/01/21 05:54:57;;;;;;;17.00;13.48;;;26.00;91.50;;;;;;4194952;28;20044;-65
2022/01/21 05:57:16;;;;;;;19.80;13.90;;;26.00;91.50;;;;;;4194177;28;20208;-67
2022/01/21 05:59:22;;;;;;;19.38;13.82;;;25.90;91.80;;;;;;4195060;28;20047;-66
2022/01/21 06:01:30;;;;;;;21.55;14.38;;;25.90;92.10;;;;;;4195764;28;20048;-64
2022/01/21 06:03:35;;;;;;;22.50;14.02;;;25.90;92.10;;;;;;4193725;28;20040;-69
2022/01/21 06:05:40;;;;;;;20.02;14.32;;;25.90;92.00;;;;;;4193376;28;20157;-67
2022/01/21 06:07:46;;;;;;;19.67;14.10;;;26.00;91.90;;;;;;4193653;28;20052;-65
2022/01/21 06:09:51;;;;;;;19.80;14.75;;;25.90;91.70;;;;;;4194404;28;20048;-67
2022/01/21 06:11:56;;;;;;;19.60;15.32;;;26.00;91.60;;;;;;4175597;28;20068;-64
2022/01/21 06:14:02;;;;;;;19.52;15.13;;;26.00;91.60;;;;;;4195175;28;20058;-64
2022/01/21 06:16:07;;;;;;;20.42;14.63;;;25.90;91.60;;;;;;4175895;28;20052;-65
2022/01/21 06:18:13;;;;;;;17.92;14.43;;;25.90;91.40;;;;;;4195499;28;20148;-65
2022/01/21 06:20:18;;;;;;;16.55;13.27;;;25.80;91.50;;;;;;4198173;28;20079;-66
2022/01/21 06:22:22;;;;;;;18.88;14.07;;;25.80;91.70;;;;;;4197914;28;20725;-66
2022/01/21 06:24:26;;;;;;;20.27;14.48;;;25.90;91.70;;;;;;4197602;28;20048;-66
2022/01/21 06:26:30;;;;;;;24.05;14.70;;;25.90;91.80;;;;;;4197411;28;20068;-63
2022/01/21 06:28:35;;;;;;;23.60;14.27;;;25.90;91.80;;;;;;4197972;28;20122;-64
2022/01/21 06:30:40;;;;;;;17.65;13.88;;;25.90;91.70;;;;;;4177882;28;20044;-66
2022/01/21 06:32:44;;;;;;;22.27;14.77;;;25.90;91.70;;;;;;4182173;28;20060;-67
2022/01/21 06:34:48;;;;;;;19.95;14.40;;;25.90;91.70;;;;;;4179794;28;20060;-65
2022/01/21 06:36:52;;;;;;;17.70;14.18;;;25.90;91.80;;;;;;4181742;28;20479;-66
2022/01/21 06:38:57;;;;;;;23.20;15.52;;;26.00;92.10;;;;;;4181277;28;20056;-66
2022/01/21 06:41:01;;;;;;;20.35;15.35;;;26.10;92.20;;;;;;4175173;28;20083;-65
2022/01/21 06:43:05;;;;;;;24.90;15.25;;;26.00;91.60;;;;;;4180544;28;20784;-66
2022/01/21 06:45:10;;;;;;;21.17;15.50;;;26.00;92.10;;;;;;4180541;28;20044;-65
2022/01/21 06:47:14;;;;;;;20.80;15.52;;;26.00;92.50;;;;;;4180943;28;20044;-68
2022/01/21 06:49:19;;;;;;;21.80;15.77;;;26.20;92.40;;;;;;4179580;28;20599;-65
2022/01/21 06:51:25;;;;;;;27.45;16.52;;;26.40;92.00;;;;;;4180624;28;20043;-65
2022/01/21 06:53:29;;;;;;;24.55;16.15;;;26.40;91.80;;;;;;4179401;28;20055;-66
2022/01/21 06:55:37;;;;;;;21.25;16.35;;;26.20;91.60;;;;;;4195991;28;20063;-65
2022/01/21 06:57:42;;;;;;;23.75;15.30;;;26.30;91.80;;;;;;4154879;28;20110;-66
2022/01/21 06:59:47;;;;;;;22.05;15.07;;;26.30;91.80;;;;;;4181259;28;20052;-65
2022/01/21 07:01:51;;;;;;;22.10;14.15;;;26.30;91.80;;;;;;4179293;28;20283;-63
2022/01/21 07:03:56;;;;;;;24.15;15.82;;;26.40;91.70;;;;;;4181247;28;20608;-65
2022/01/21 07:06:00;;;;;;;20.08;14.93;;;26.40;91.80;;;;;;4179497;28;20123;-63
2022/01/21 07:08:05;;;;;;;20.10;15.00;;;26.40;91.80;;;;;;4188876;28;20079;-66
2022/01/21 07:10:11;;;;;;;21.02;15.45;;;26.40;91.90;;;;;;4180403;28;20125;-64
2022/01/21 07:12:16;;;;;;;19.25;14.48;;;26.60;91.60;;;;;;4179533;28;20045;-66
2022/01/21 07:14:21;;;;;;;21.38;15.65;;;26.60;91.50;;;;;;4180038;28;20041;-64
2022/01/21 07:16:26;;;;;;;22.02;15.77;;;26.70;91.60;;;;;;4170323;28;20408;-64
2022/01/21 07:18:30;;;;;;;18.35;14.77;;;26.80;91.50;;;;;;4179056;28;20052;-65
2022/01/21 07:20:35;;;;;;;19.15;15.23;;;26.80;91.30;;;;;;4179632;28;20138;-66
2022/01/21 07:22:40;;;;;;;24.27;15.88;;;26.70;91.10;;;;;;4179781;28;20052;-64
2022/01/21 07:24:44;;;;;;;22.85;15.13;;;26.70;91.20;;;;;;4178701;28;20040;-64
2022/01/21 07:26:48;;;;;;;34.80;15.25;;;26.80;91.20;;;;;;4180004;28;20047;-65
2022/01/21 07:28:53;;;;;;;25.88;15.18;;;26.90;91.10;;;;;;4177746;28;20194;-65
2022/01/21 07:30:57;;;;;;;26.85;15.13;;;27.00;90.80;;;;;;4187600;28;20083;-65
2022/01/21 07:33:03;;;;;;;22.05;14.35;;;27.00;90.60;;;;;;4197004;28;20778;-65
2022/01/21 07:35:09;;;;;;;28.35;13.38;;;27.00;90.70;;;;;;4196936;28;21193;-65
2022/01/21 07:37:30;;;;;;;23.80;15.10;;;27.00;90.80;;;;;;4195573;28;20083;-65
2022/01/21 07:39:35;;;;;;;20.67;14.05;;;26.90;90.60;;;;;;4197115;28;20047;-64
2022/01/21 07:41:39;;;;;;;21.65;14.40;;;26.90;90.60;;;;;;4197669;28;20040;-64
2022/01/21 07:43:44;;;;;;;19.83;13.65;;;26.90;90.60;;;;;;4196626;28;20044;-67
2022/01/21 07:45:48;;;;;;;19.27;13.50;;;26.90;90.70;;;;;;4196956;28;20056;-63
2022/01/21 07:47:53;;;;;;;18.17;13.55;;;26.90;90.70;;;;;;4196236;28;20121;-67
2022/01/21 07:49:57;;;;;;;22.10;13.50;;;27.00;90.60;;;;;;4196707;28;21076;-65
2022/01/21 07:52:02;;;;;;;19.20;14.02;;;27.10;90.50;;;;;;4179405;28;20044;-67
2022/01/21 07:54:08;;;;;;;20.90;13.75;;;27.10;90.40;;;;;;4197570;28;20051;-64
2022/01/21 07:56:13;;;;;;;24.15;13.10;;;27.10;90.30;;;;;;4177027;28;20122;-65
2022/01/21 07:58:18;;;;;;;19.65;13.10;;;27.00;90.50;;;;;;4178246;28;21003;-66
2022/01/21 08:00:23;;;;;;;16.20;12.60;;;27.10;90.60;;;;;;4195560;28;20495;-65
2022/01/21 08:02:29;;;;;;;17.35;12.93;;;27.10;90.50;;;;;;4197615;28;20058;-64
2022/01/21 08:04:33;;;;;;;18.60;12.82;;;27.10;90.50;;;;;;4195306;28;20070;-65
2022/01/21 08:06:38;;;;;;;17.73;12.93;;;27.10;90.50;;;;;;4178689;28;20710;-66
2022/01/21 08:08:42;;;;;;;20.55;14.45;;;27.20;90.60;;;;;;4195265;28;20086;-66
2022/01/21 08:10:47;;;;;;;21.52;12.85;;;27.20;90.40;;;;;;4196368;28;20068;-66
2022/01/21 08:12:52;;;;;;;20.42;12.80;;;27.30;90.40;;;;;;4196105;28;20198;-65
2022/01/21 08:14:56;;;;;;;21.52;14.73;;;27.30;90.10;;;;;;4195360;28;20047;-65
2022/01/21 08:17:02;;;;;;;20.02;15.00;;;27.30;90.20;;;;;;4177960;28;20139;-65
2022/01/21 08:19:06;;;;;;;23.77;15.85;;;27.30;90.30;;;;;;4195085;28;20052;-65
2022/01/21 08:21:18;;;;;;;20.90;16.25;;;27.20;90.60;;;;;;4197035;28;20079;-65
2022/01/21 08:23:22;;;;;;;25.08;19.13;;;27.30;90.20;;;;;;4196477;28;20109;-65
2022/01/21 08:25:26;;;;;;;27.58;20.75;;;27.30;90.20;;;;;;4195331;28;20765;-64
2022/01/21 08:27:31;;;;;;;28.50;19.75;;;27.30;90.10;;;;;;4196892;28;20063;-66
2022/01/21 08:29:35;;;;;;;25.10;18.52;;;27.30;90.20;;;;;;4195163;28;20044;-65
2022/01/21 08:31:39;;;;;;;20.88;16.95;;;27.30;90.20;;;;;;4196496;28;20079;-66
2022/01/21 08:33:44;;;;;;;19.75;14.60;;;27.20;90.30;;;;;;4196327;28;20522;-65
2022/01/21 08:35:48;;;;;;;28.55;16.08;;;27.20;90.40;;;;;;4195453;28;20860;-66
2022/01/21 08:37:53;;;;;;;23.50;14.13;;;27.20;90.40;;;;;;4178088;28;20171;-66
2022/01/21 08:39:57;;;;;;;19.55;13.48;;;27.20;90.50;;;;;;4177615;28;20091;-65
2022/01/21 08:42:03;;;;;;;16.52;12.65;;;27.20;90.60;;;;;;4195090;28;20063;-66
2022/01/21 08:44:07;;;;;;;19.88;13.25;;;27.10;90.40;;;;;;4196630;28;20052;-65
2022/01/21 08:46:11;;;;;;;18.63;14.10;;;27.10;90.30;;;;;;4195654;28;20555;-65
2022/01/21 08:48:16;;;;;;;17.05;13.07;;;27.00;90.20;;;;;;4196446;28;20044;-65
2022/01/21 08:50:21;;;;;;;19.58;13.32;;;27.00;90.30;;;;;;4195218;28;20587;-65
2022/01/21 08:52:28;;;;;;;15.20;11.93;;;27.00;90.40;;;;;;4197066;28;20077;-66
2022/01/21 08:54:33;;;;;;;18.50;13.32;;;27.00;90.70;;;;;;4195774;28;20059;-65
2022/01/21 08:56:37;;;;;;;16.80;12.68;;;27.10;90.70;;;;;;4196227;28;20058;-66
2022/01/21 08:58:42;;;;;;;18.95;12.65;;;27.10;90.70;;;;;;4192809;28;20664;-65
2022/01/21 09:00:46;;;;;;;17.30;11.88;;;27.10;90.70;;;;;;4194379;28;20063;-64
2022/01/21 09:02:52;;;;;;;19.85;12.63;;;27.10;90.60;;;;;;4195686;28;20173;-65
2022/01/21 09:04:56;;;;;;;17.83;11.90;;;27.10;90.60;;;;;;4195071;28;20060;-64
2022/01/21 09:07:01;;;;;;;23.45;12.82;;;27.10;90.70;;;;;;4195125;28;20533;-64
2022/01/21 09:09:06;;;;;;;19.75;13.07;;;27.10;90.70;;;;;;4193490;28;20050;-64
2022/01/21 09:11:11;;;;;;;20.75;12.45;;;27.00;90.70;;;;;;4194890;28;20109;-65
2022/01/21 09:13:15;;;;;;;16.88;13.23;;;27.10;90.80;;;;;;4195888;28;20048;-65
2022/01/21 09:15:25;;;;;;;20.05;12.85;;;27.10;90.80;;;;;;4195190;28;20052;-64
2022/01/21 09:17:36;;;;;;;17.77;13.15;;;27.10;90.70;;;;;;4195314;28;20044;-64
2022/01/21 09:19:41;;;;;;;19.67;12.82;;;27.00;90.70;;;;;;4194540;28;20060;-64
2022/01/21 09:21:51;;;;;;;19.88;13.32;;;27.00;90.80;;;;;;4195662;28;21303;-64
2022/01/21 09:23:55;;;;;;;21.05;12.82;;;27.00;90.80;;;;;;4196944;28;20052;-65
2022/01/21 09:26:00;;;;;;;18.58;12.85;;;27.00;90.80;;;;;;4193611;28;20063;-64
2022/01/21 09:28:05;;;;;;;17.15;12.43;;;27.00;90.90;;;;;;4194919;28;20044;-64
2022/01/21 09:30:10;;;;;;;18.60;12.82;;;27.00;90.90;;;;;;4195069;28;20486;-64
2022/01/21 09:32:15;;;;;;;21.10;13.18;;;26.90;90.90;;;;;;4194209;28;20048;-64
2022/01/21 09:34:20;;;;;;;20.45;14.10;;;26.90;90.90;;;;;;4196178;28;20130;-64
2022/01/21 09:36:25;;;;;;;24.35;13.55;;;26.90;90.90;;;;;;4177626;28;20052;-64
2022/01/21 09:38:29;;;;;;;21.58;13.98;;;26.90;90.80;;;;;;4195007;28;21473;-64
2022/01/21 09:40:34;;;;;;;21.60;15.02;;;26.90;90.80;;;;;;4176723;28;20056;-64
2022/01/21 09:42:40;;;;;;;24.30;17.08;;;26.90;90.80;;;;;;4196144;28;20055;-65
2022/01/21 09:44:45;;;;;;;21.50;15.80;;;26.90;91.20;;;;;;4177263;28;20053;-66
2022/01/21 09:46:50;;;;;;;33.92;15.80;;;27.00;91.20;;;;;;4195841;28;20597;-63
2022/01/21 09:49:07;;;;;;;21.60;15.82;;;27.00;90.90;;;;;;4176841;28;20057;-65
2022/01/21 09:51:12;;;;;;;32.85;15.48;;;26.90;90.70;;;;;;4194111;28;21224;-66
2022/01/21 09:53:18;;;;;;;21.35;14.80;;;26.90;90.70;;;;;;4195446;28;20075;-67
2022/01/21 09:55:22;;;;;;;21.02;14.05;;;26.90;90.80;;;;;;4198918;28;20090;-66
2022/01/21 09:57:28;;;;;;;28.60;16.30;;;26.90;90.90;;;;;;4181553;28;20075;-67
2022/01/21 09:59:34;;;;;;;23.02;15.70;;;26.90;90.80;;;;;;4198411;28;20399;-66
2022/01/21 10:01:39;;;;;;;21.27;16.48;;;26.90;90.80;;;;;;4198133;28;20075;-66
2022/01/21 10:03:44;;;;;;;21.92;18.05;;;26.90;90.90;;;;;;4198369;28;20040;-65
2022/01/21 10:05:49;;;;;;;22.33;18.55;;;26.80;90.80;;;;;;4197986;28;20181;-65
2022/01/21 10:07:54;;;;;;;28.25;17.60;;;26.80;90.90;;;;;;4197451;28;20159;-65
2022/01/21 10:10:06;;;;;;;23.38;17.30;;;26.80;90.90;;;;;;4198854;28;20058;-65
2022/01/21 10:12:25;;;;;;;31.67;16.45;;;26.70;90.90;;;;;;4199050;28;20040;-65
2022/01/21 10:14:29;;;;;;;22.35;15.93;;;26.70;90.90;;;;;;4198045;28;20299;-62
2022/01/21 10:16:34;;;;;;;29.08;17.25;;;26.60;91.00;;;;;;4196618;28;20900;-64
2022/01/21 10:18:40;;;;;;;24.42;16.15;;;26.60;91.00;;;;;;4199003;28;20179;-64
2022/01/21 10:21:03;;;;;;;21.83;15.60;;;26.60;91.10;;;;;;4178058;28;20048;-63
2022/01/21 10:23:09;;;;;;;24.10;16.55;;;26.60;91.30;;;;;;4198621;28;20445;-63
2022/01/21 10:25:16;;;;;;;40.97;18.30;;;26.50;91.30;;;;;;4197346;28;20060;-64
2022/01/21 10:27:26;;;;;;;30.55;18.65;;;26.50;91.40;;;;;;4197789;28;20032;-64
2022/01/21 10:29:43;;;;;;;38.50;18.70;;;26.50;91.40;;;;;;4197534;28;21300;-64
2022/01/21 10:31:59;;;;;;;64.30;20.02;;;26.40;91.40;;;;;;4196277;28;21305;-64
2022/01/21 10:34:04;;;;;;;70.38;20.80;;;26.40;91.40;;;;;;4197170;28;20048;-62
2022/01/21 10:36:24;;;;;;;47.90;20.58;;;26.40;91.50;;;;;;4196525;28;20055;-64
2022/01/21 10:38:31;;;;;;;43.97;20.15;;;26.40;91.70;;;;;;4197398;28;20056;-65
2022/01/21 10:40:35;;;;;;;31.73;19.85;;;26.30;91.70;;;;;;4198346;28;20140;-65
2022/01/21 10:42:40;;;;;;;28.92;18.45;;;26.30;91.60;;;;;;4196426;28;20040;-66
2022/01/21 10:44:49;;;;;;;26.67;18.40;;;26.30;91.50;;;;;;4196826;28;20143;-64
2022/01/21 10:47:12;;;;;;;27.52;18.98;;;26.30;91.50;;;;;;4198561;28;20202;-64
2022/01/21 10:49:17;;;;;;;25.98;18.80;;;26.20;91.60;;;;;;4178040;28;20041;-65
2022/01/21 10:51:25;;;;;;;29.80;18.70;;;26.20;91.60;;;;;;4196764;28;20036;-66
2022/01/21 10:53:31;;;;;;;28.30;17.50;;;26.20;91.60;;;;;;4196747;28;20048;-65
2022/01/21 10:55:38;;;;;;;34.38;23.13;;;26.20;91.90;;;;;;4179925;28;20172;-66
2022/01/21 10:57:43;;;;;;;39.30;27.83;;;26.20;92.00;;;;;;4198281;28;20052;-66
2022/01/21 11:00:14;;;;;;;42.50;30.30;;;26.10;92.10;;;;;;4162955;28;20562;-65
2022/01/21 11:02:34;;;;;;;47.50;30.83;;;26.10;92.20;;;;;;4177401;28;20079;-66
2022/01/21 11:04:42;;;;;;;42.90;30.25;;;26.00;92.30;;;;;;4180725;28;20127;-68
2022/01/21 11:06:52;;;;;;;43.78;30.35;;;26.00;92.50;;;;;;4195808;28;20077;-66
2022/01/21 11:09:12;;;;;;;51.28;34.63;;;26.00;92.50;;;;;;4197105;28;20041;-63
2022/01/21 11:11:23;;;;;;;59.53;35.05;;;26.00;92.70;;;;;;4196237;28;20758;-65
2022/01/21 11:13:30;;;;;;;56.80;36.35;;;25.90;92.70;;;;;;4180189;28;21431;-66
2022/01/21 11:15:49;;;;;;;58.90;41.47;;;25.90;92.70;;;;;;4178339;28;21668;-67
2022/01/21 11:18:16;;;;;;;63.67;42.15;;;25.80;92.70;;;;;;4180963;28;20044;-66
2022/01/21 11:20:25;;;;;;;57.85;37.28;;;25.80;92.70;;;;;;4196773;28;20159;-67
2022/01/21 11:22:30;;;;;;;46.13;32.00;;;25.80;92.80;;;;;;4196546;28;20059;-66
2022/01/21 11:24:35;;;;;;;46.03;30.15;;;25.80;92.80;;;;;;4195179;28;20048;-66
2022/01/21 11:26:41;;;;;;;44.92;29.05;;;25.80;92.90;;;;;;4178678;28;20044;-65
2022/01/21 11:28:49;;;;;;;42.90;28.17;;;25.80;93.00;;;;;;4179474;28;20041;-65
2022/01/21 11:30:54;;;;;;;40.55;27.35;;;25.80;93.00;;;;;;4178924;28;20324;-66